Time;durP1;ratioP1;P1;durP2;ratioP2;P2;SDS_P1;SDS_P2;PMS_P1;PMS_P2;Temp;Humidity;BMP_temperature;BMP_pressure;BME280_temperature;BME280_humidity;BME280_pressure;Samples;Min_cycle;Max_cycle;Signal;HPM_P1;HPM_P2
2023/04/02 00:01:18;;;;;;;;;;;4.50;99.90;;;;;;5007569;28;20694;-68
2023/04/02 00:03:43;;;;;;;7.82;3.95;;;4.40;99.90;;;;;;5009065;28;19925;-69
2023/04/02 00:06:24;;;;;;;4.93;3.13;;;4.40;99.90;;;;;;5004357;28;20069;-68
2023/04/02 00:08:53;;;;;;;6.88;3.38;;;4.30;99.90;;;;;;5028670;28;20140;-68
2023/04/02 00:11:37;;;;;;;6.90;3.75;;;4.30;99.90;;;;;;5009544;28;20037;-68
2023/04/02 00:14:05;;;;;;;4.85;3.47;;;4.30;99.90;;;;;;5004423;28;20045;-68
2023/04/02 00:16:31;;;;;;;6.30;3.75;;;4.30;99.90;;;;;;4997305;28;20144;-68
2023/04/02 00:19:01;;;;;;;7.00;3.47;;;4.30;99.90;;;;;;5028583;28;20077;-68
2023/04/02 00:21:31;;;;;;;8.90;3.85;;;4.40;99.90;;;;;;5026789;28;20477;-68
2023/04/02 00:23:59;;;;;;;5.27;3.27;;;4.30;99.90;;;;;;5029709;28;20033;-68
2023/04/02 00:26:41;;;;;;;8.90;4.07;;;4.30;99.90;;;;;;5032315;28;20354;-68
2023/04/02 00:29:09;;;;;;;8.48;3.42;;;4.30;99.90;;;;;;5031419;28;20036;-65
2023/04/02 00:31:40;;;;;;;4.40;2.80;;;4.20;99.90;;;;;;4992987;28;20037;-68
2023/04/02 00:34:11;;;;;;;5.90;2.85;;;4.20;99.90;;;;;;5009120;28;20056;-67
2023/04/02 00:36:37;;;;;;;4.80;2.25;;;4.20;99.90;;;;;;5010158;28;20091;-68
2023/04/02 00:39:11;;;;;;;6.82;3.13;;;4.10;99.90;;;;;;5029577;28;20436;-68
2023/04/02 00:41:37;;;;;;;4.60;2.15;;;4.10;99.90;;;;;;5030416;28;20033;-67
2023/04/02 00:44:04;;;;;;;4.53;2.97;;;4.10;99.90;;;;;;5013617;28;20037;-67
2023/04/02 00:46:45;;;;;;;6.05;2.78;;;3.90;99.90;;;;;;5029340;28;20084;-68
2023/04/02 00:49:18;;;;;;;5.72;2.35;;;3.90;99.90;;;;;;5003638;28;20148;-67
2023/04/02 00:51:50;;;;;;;5.00;2.65;;;3.90;99.90;;;;;;5012374;28;20041;-67
2023/04/02 00:54:20;;;;;;;5.07;2.50;;;3.80;99.90;;;;;;5007524;28;20767;-68
2023/04/02 00:56:49;;;;;;;6.53;2.50;;;3.80;99.90;;;;;;5005699;28;20053;-68
2023/04/02 00:59:26;;;;;;;4.97;2.35;;;3.80;99.90;;;;;;5020825;28;20034;-68
2023/04/02 01:02:12;;;;;;;4.43;2.58;;;3.60;99.90;;;;;;5001796;28;20046;-68
2023/04/02 01:04:38;;;;;;;5.07;3.05;;;3.40;99.90;;;;;;4985835;28;20144;-68
2023/04/02 01:07:08;;;;;;;3.83;2.00;;;3.30;99.90;;;;;;5007590;28;20041;-68
2023/04/02 01:10:05;;;;;;;4.03;2.65;;;3.30;99.90;;;;;;5023885;28;20120;-68
2023/04/02 01:13:11;;;;;;;7.95;2.97;;;3.20;99.90;;;;;;5008653;28;20558;-68
2023/04/02 01:15:52;;;;;;;6.55;2.47;;;3.00;99.90;;;;;;5017957;28;20049;-68
2023/04/02 01:18:55;;;;;;;6.55;2.75;;;2.90;99.90;;;;;;5002836;28;20081;-68
2023/04/02 01:21:32;;;;;;;5.50;2.40;;;2.80;99.90;;;;;;4996025;28;20058;-68
2023/04/02 01:24:10;;;;;;;4.80;2.63;;;2.70;99.90;;;;;;4991617;28;20041;-69
2023/04/02 01:26:45;;;;;;;3.58;2.22;;;2.60;99.90;;;;;;4998129;28;20656;-68
2023/04/02 01:29:25;;;;;;;3.75;2.22;;;2.60;99.90;;;;;;5017381;28;20049;-68
2023/04/02 01:31:53;;;;;;;4.78;2.20;;;2.50;99.90;;;;;;5010901;28;20052;-67
2023/04/02 01:34:22;;;;;;;4.13;2.20;;;2.40;99.90;;;;;;5003031;28;20053;-66
2023/04/02 01:37:27;;;;;;;3.88;2.08;;;2.40;99.90;;;;;;5014034;28;20465;-68
2023/04/02 01:40:04;;;;;;;7.53;2.95;;;2.40;99.90;;;;;;5009086;28;20041;-69
2023/04/02 01:42:57;;;;;;;8.70;2.42;;;2.30;99.90;;;;;;5025801;28;20095;-68
2023/04/02 01:45:23;;;;;;;3.90;2.17;;;2.30;99.90;;;;;;5022765;28;20485;-68
2023/04/02 01:47:50;;;;;;;5.25;2.45;;;2.20;99.90;;;;;;5009182;28;20891;-68
2023/04/02 01:50:25;;;;;;;4.95;2.75;;;2.20;99.90;;;;;;5005894;28;20355;-68
2023/04/02 01:52:54;;;;;;;4.82;2.35;;;2.10;99.90;;;;;;5009911;28;20485;-68
2023/04/02 01:55:37;;;;;;;4.67;1.87;;;2.10;99.90;;;;;;5013550;28;20052;-67
2023/04/02 01:58:03;;;;;;;2.83;1.80;;;2.10;99.90;;;;;;5022016;28;20052;-69
2023/04/02 02:00:30;;;;;;;4.95;2.50;;;2.00;99.90;;;;;;5023124;28;20059;-68
2023/04/02 02:02:55;;;;;;;5.47;2.13;;;2.00;99.90;;;;;;5028144;28;20469;-68
2023/04/02 02:05:23;;;;;;;4.90;2.70;;;1.90;99.90;;;;;;5009045;28;20042;-68
2023/04/02 02:07:50;;;;;;;3.47;2.08;;;1.90;99.90;;;;;;5029056;28;20377;-68
2023/04/02 02:10:25;;;;;;;4.55;2.42;;;1.90;99.90;;;;;;5029451;28;20042;-68
2023/04/02 02:12:51;;;;;;;3.78;2.22;;;1.80;99.90;;;;;;5032649;28;20033;-68
2023/04/02 02:15:21;;;;;;;3.63;2.08;;;1.80;99.90;;;;;;5029468;28;20049;-68
2023/04/02 02:17:48;;;;;;;3.72;2.08;;;1.70;99.90;;;;;;5018226;28;20453;-67
2023/04/02 02:20:14;;;;;;;4.35;2.67;;;1.70;99.90;;;;;;4995771;28;20454;-67
2023/04/02 02:22:44;;;;;;;7.50;2.53;;;1.70;99.90;;;;;;5026290;28;20366;-68
2023/04/02 02:25:15;;;;;;;4.22;2.63;;;1.60;99.90;;;;;;5002044;28;20045;-67
2023/04/02 02:28:02;;;;;;;3.70;1.63;;;1.60;99.90;;;;;;5016828;28;20037;-67
2023/04/02 02:30:49;;;;;;;3.25;1.80;;;1.60;99.90;;;;;;5020550;28;20116;-67
2023/04/02 02:33:19;;;;;;;6.13;1.85;;;1.50;99.90;;;;;;5020217;28;20053;-68
2023/04/02 02:35:51;;;;;;;6.38;2.00;;;1.50;99.90;;;;;;5016005;28;20087;-66
2023/04/02 02:38:32;;;;;;;6.65;2.00;;;1.40;99.90;;;;;;5019055;28;20037;-67
2023/04/02 02:41:06;;;;;;;11.18;1.95;;;1.40;99.90;;;;;;5002035;28;20046;-68
2023/04/02 02:43:33;;;;;;;4.47;2.20;;;1.40;99.90;;;;;;5025665;28;20037;-68
2023/04/02 02:46:03;;;;;;;4.03;1.80;;;1.40;99.90;;;;;;5026308;28;20470;-67
2023/04/02 02:48:33;;;;;;;;;;;1.30;99.90;;;;;;5011484;28;20049;-68
2023/04/02 02:51:00;;;;;;;4.43;1.85;;;1.30;99.90;;;;;;5005680;28;19917;-67
2023/04/02 02:53:25;;;;;;;6.25;2.00;;;1.40;99.90;;;;;;4998292;28;20069;-67
2023/04/02 02:55:59;;;;;;;5.07;1.45;;;1.40;99.90;;;;;;5017430;28;20516;-67
2023/04/02 02:58:30;;;;;;;2.88;1.70;;;1.40;99.90;;;;;;5021930;28;20083;-67
2023/04/02 03:00:56;;;;;;;2.70;1.80;;;1.50;99.90;;;;;;4995800;28;20512;-68
2023/04/02 03:03:27;;;;;;;5.25;1.63;;;1.50;99.90;;;;;;5030964;28;20049;-67
2023/04/02 03:05:58;;;;;;;2.55;1.40;;;1.50;99.90;;;;;;5013034;28;20149;-68
2023/04/02 03:08:41;;;;;;;4.82;1.52;;;1.60;99.90;;;;;;5002690;28;20046;-68
2023/04/02 03:11:18;;;;;;;2.55;1.40;;;1.60;99.90;;;;;;5005963;28;20080;-67
2023/04/02 03:13:47;;;;;;;6.78;1.83;;;1.60;99.90;;;;;;5007150;28;20042;-67
2023/04/02 03:16:35;;;;;;;2.87;1.73;;;1.70;99.90;;;;;;5021544;28;20083;-66
2023/04/02 03:19:00;;;;;;;3.53;1.77;;;1.70;99.90;;;;;;5025218;28;20046;-68
2023/04/02 03:21:50;;;;;;;2.05;1.42;;;1.70;99.90;;;;;;5024352;28;20367;-69
2023/04/02 03:24:40;;;;;;;2.25;1.42;;;1.70;99.90;;;;;;5009798;28;20046;-65
2023/04/02 03:27:13;;;;;;;3.08;1.38;;;1.70;99.90;;;;;;5022634;28;20405;-68
2023/04/02 03:29:44;;;;;;;3.40;1.55;;;1.70;99.90;;;;;;5015190;28;20432;-68
2023/04/02 03:32:21;;;;;;;5.95;1.45;;;1.60;99.90;;;;;;5021726;28;20045;-69
2023/04/02 03:35:39;;;;;;;1.83;1.42;;;1.70;99.90;;;;;;5022145;28;20045;-68
2023/04/02 03:38:35;;;;;;;2.35;1.50;;;1.70;99.90;;;;;;4966983;28;20124;-66
2023/04/02 03:41:09;;;;;;;1.58;1.13;;;1.60;99.90;;;;;;5013563;28;20056;-67
2023/04/02 03:43:53;;;;;;;5.68;1.73;;;1.70;99.90;;;;;;5009617;28;20049;-68
2023/04/02 03:46:39;;;;;;;4.18;1.50;;;1.60;99.90;;;;;;4991950;28;20473;-67
2023/04/02 03:49:48;;;;;;;3.00;1.60;;;1.60;99.90;;;;;;5028225;28;20117;-67
2023/04/02 03:52:25;;;;;;;4.22;1.50;;;1.60;99.90;;;;;;4946084;29;20047;-68
2023/04/02 03:54:55;;;;;;;3.15;1.42;;;1.60;99.90;;;;;;5005584;28;20115;-67
2023/04/02 03:57:23;;;;;;;2.00;1.08;;;1.60;99.90;;;;;;5024315;28;20038;-68
2023/04/02 04:00:03;;;;;;;3.38;1.20;;;1.60;99.90;;;;;;5030035;28;20076;-68
2023/04/02 04:02:32;;;;;;;;;;;1.60;99.90;;;;;;5019390;28;20631;-68
2023/04/02 04:04:59;;;;;;;3.13;1.23;;;1.50;99.90;;;;;;5024659;28;19916;-68
2023/04/02 04:07:35;;;;;;;2.42;1.20;;;1.50;99.90;;;;;;5003384;28;20159;-69
2023/04/02 04:10:03;;;;;;;2.00;1.77;;;1.50;99.90;;;;;;5014742;28;20056;-70
2023/04/02 04:12:28;;;;;;;2.05;1.00;;;1.40;99.90;;;;;;5008877;28;20116;-68
2023/04/02 04:15:06;;;;;;;1.95;0.95;;;1.40;99.90;;;;;;5006274;28;20141;-68
2023/04/02 04:17:50;;;;;;;2.05;1.17;;;1.30;99.90;;;;;;5002871;28;20033;-68
2023/04/02 04:20:20;;;;;;;1.70;0.77;;;1.20;99.90;;;;;;4997443;28;20041;-67
2023/04/02 04:22:48;;;;;;;2.65;0.93;;;1.20;99.90;;;;;;5004074;28;20049;-67
2023/04/02 04:25:32;;;;;;;3.30;1.27;;;1.20;99.90;;;;;;5018408;28;20046;-68
2023/04/02 04:28:31;;;;;;;2.42;0.80;;;1.20;99.90;;;;;;5000603;28;20535;-68
2023/04/02 04:31:16;;;;;;;2.92;0.77;;;1.10;99.90;;;;;;4984255;28;20041;-67
2023/04/02 04:33:49;;;;;;;1.40;1.00;;;1.00;99.90;;;;;;5001041;28;20077;-69
2023/04/02 04:36:27;;;;;;;2.70;1.20;;;1.10;99.90;;;;;;5014258;28;20127;-69
2023/04/02 04:38:58;;;;;;;2.00;0.82;;;1.00;99.90;;;;;;5000646;28;20048;-68
2023/04/02 04:41:29;;;;;;;3.08;1.42;;;0.90;99.90;;;;;;5000306;28;20953;-68
2023/04/02 04:44:24;;;;;;;3.10;1.13;;;0.80;99.90;;;;;;5000654;28;20051;-67
2023/04/02 04:46:59;;;;;;;1.60;0.80;;;0.80;99.90;;;;;;5000940;28;20439;-69
2023/04/02 04:50:03;;;;;;;1.48;0.70;;;0.80;99.90;;;;;;5020640;28;20102;-68
2023/04/02 04:52:33;;;;;;;10.77;1.00;;;0.80;99.90;;;;;;4997174;28;20055;-68
2023/04/02 04:54:59;;;;;;;;;;;0.70;99.90;;;;;;4998558;28;20053;-68
2023/04/02 04:57:35;;;;;;;3.63;1.13;;;0.80;99.90;;;;;;5010057;28;20395;-68
2023/04/02 05:00:17;;;;;;;3.15;0.98;;;0.70;99.90;;;;;;5015864;28;20033;-69
2023/04/02 05:03:00;;;;;;;5.50;1.10;;;0.60;99.90;;;;;;5018746;28;20408;-68
2023/04/02 05:05:29;;;;;;;2.50;0.90;;;0.60;99.90;;;;;;4994306;28;20041;-70
2023/04/02 05:07:59;;;;;;;4.78;1.05;;;0.60;99.90;;;;;;5021216;28;20033;-68
2023/04/02 05:10:35;;;;;;;4.68;1.10;;;0.60;99.90;;;;;;5025341;28;20127;-69
2023/04/02 05:13:09;;;;;;;3.22;1.00;;;0.60;99.90;;;;;;5005715;28;20051;-68
2023/04/02 05:15:40;;;;;;;1.35;0.80;;;0.60;99.90;;;;;;5012604;28;21166;-68
2023/04/02 05:18:06;;;;;;;2.25;0.90;;;0.60;99.90;;;;;;5022003;28;20044;-67
2023/04/02 05:20:39;;;;;;;1.13;0.80;;;0.60;99.90;;;;;;4995412;28;20033;-68
2023/04/02 05:23:09;;;;;;;2.28;0.68;;;0.50;99.90;;;;;;5021423;28;20052;-68
2023/04/02 05:25:48;;;;;;;5.28;0.93;;;0.50;99.90;;;;;;5022216;28;20030;-68
2023/04/02 05:28:42;;;;;;;2.55;0.93;;;0.50;99.90;;;;;;5007720;28;20043;-69
2023/04/02 05:31:16;;;;;;;2.72;0.82;;;0.50;99.90;;;;;;5007144;28;20057;-67
2023/04/02 05:33:47;;;;;;;2.92;1.10;;;0.50;99.90;;;;;;5008191;28;20069;-68
2023/04/02 05:36:25;;;;;;;3.38;0.85;;;0.50;99.90;;;;;;5012288;28;20129;-68
2023/04/02 05:38:53;;;;;;;3.28;0.98;;;0.50;99.90;;;;;;5027695;28;20102;-67
2023/04/02 05:41:25;;;;;;;0.90;0.60;;;0.50;99.90;;;;;;5003198;28;20046;-68
2023/04/02 05:44:10;;;;;;;2.17;1.00;;;0.60;99.90;;;;;;4990197;28;20051;-68
2023/04/02 05:46:55;;;;;;;1.40;0.88;;;0.60;99.90;;;;;;5008466;28;20831;-68
2023/04/02 05:49:41;;;;;;;2.80;0.98;;;0.60;99.90;;;;;;5010847;28;20061;-68
2023/04/02 05:52:14;;;;;;;3.08;1.45;;;0.70;99.90;;;;;;4992439;28;20049;-67
2023/04/02 05:54:48;;;;;;;2.40;1.42;;;0.70;99.90;;;;;;5017951;28;20517;-68
2023/04/02 05:57:21;;;;;;;5.40;0.82;;;0.80;99.90;;;;;;5016794;28;20057;-68
2023/04/02 05:59:55;;;;;;;2.60;0.70;;;0.80;99.90;;;;;;5012124;28;20492;-67
2023/04/02 06:02:35;;;;;;;2.35;1.10;;;0.90;99.90;;;;;;4997273;28;20037;-68
2023/04/02 06:05:12;;;;;;;6.72;1.00;;;0.90;99.90;;;;;;5006971;28;20084;-66
2023/04/02 06:07:55;;;;;;;3.97;1.00;;;1.00;99.90;;;;;;5011648;28;20045;-67
2023/04/02 06:10:31;;;;;;;2.05;0.80;;;1.10;99.90;;;;;;5014041;28;20061;-68
2023/04/02 06:13:10;;;;;;;1.05;0.82;;;1.20;99.90;;;;;;5000718;28;20057;-68
2023/04/02 06:15:37;;;;;;;0.60;0.60;;;1.30;99.90;;;;;;4993639;28;20037;-68
2023/04/02 06:18:22;;;;;;;5.78;1.70;;;1.50;99.90;;;;;;5014788;28;20334;-68
2023/04/02 06:20:49;;;;;;;4.60;1.10;;;1.60;99.90;;;;;;5008759;28;20041;-68
2023/04/02 06:23:37;;;;;;;1.90;0.80;;;1.90;99.90;;;;;;4996441;28;20049;-70
2023/04/02 06:26:06;;;;;;;1.98;0.90;;;2.00;99.90;;;;;;4994536;28;20042;-69
2023/04/02 06:28:46;;;;;;;4.13;0.98;;;2.20;99.90;;;;;;5010824;28;20041;-68
2023/04/02 06:31:55;;;;;;;1.95;0.90;;;2.40;99.90;;;;;;5004207;28;20128;-71
2023/04/02 06:34:23;;;;;;;1.45;0.73;;;2.60;99.90;;;;;;5002260;28;20054;-67
2023/04/02 06:36:53;;;;;;;2.88;0.95;;;2.80;99.90;;;;;;5015325;28;20108;-69
2023/04/02 06:39:21;;;;;;;4.30;1.02;;;3.00;99.90;;;;;;5016332;28;20049;-70
2023/04/02 06:42:12;;;;;;;6.63;1.25;;;3.30;99.90;;;;;;5020817;28;20036;-69
2023/04/02 06:44:38;;;;;;;1.45;0.70;;;3.50;99.90;;;;;;5016030;28;20482;-70
2023/04/02 06:47:23;;;;;;;2.05;0.80;;;3.80;99.90;;;;;;5030598;28;20037;-69
2023/04/02 06:50:10;;;;;;;7.07;0.73;;;4.00;99.90;;;;;;5029977;28;20470;-69
2023/04/02 06:52:44;;;;;;;1.45;0.52;;;4.20;99.90;;;;;;5020462;28;20030;-69
2023/04/02 06:55:35;;;;;;;3.67;0.90;;;4.40;99.90;;;;;;5032294;28;20141;-70
2023/04/02 06:58:01;;;;;;;3.90;1.08;;;4.60;99.90;;;;;;5018405;28;20486;-69
2023/04/02 07:00:33;;;;;;;3.75;0.90;;;4.60;99.90;;;;;;5027575;28;20036;-69
2023/04/02 07:03:02;;;;;;;3.25;0.75;;;4.90;99.90;;;;;;5009949;28;20576;-69
2023/04/02 07:05:27;;;;;;;2.88;1.27;;;5.10;99.90;;;;;;5024480;28;20113;-69
2023/04/02 07:07:53;;;;;;;6.22;1.10;;;4.90;99.90;;;;;;5014226;28;20120;-69
2023/04/02 07:10:19;;;;;;;1.98;0.85;;;5.00;99.90;;;;;;5013015;28;20037;-69
2023/04/02 07:12:45;;;;;;;4.22;0.70;;;4.80;99.90;;;;;;5015685;28;20038;-68
2023/04/02 07:15:17;;;;;;;3.22;0.80;;;5.10;99.90;;;;;;5008341;28;20615;-68
2023/04/02 07:17:43;;;;;;;0.70;0.60;;;4.70;99.90;;;;;;5010524;28;20034;-67
2023/04/02 07:20:25;;;;;;;4.95;0.80;;;4.80;99.90;;;;;;5026252;28;20091;-68
2023/04/02 07:22:51;;;;;;;2.97;0.75;;;4.70;99.90;;;;;;5025534;28;20087;-68
2023/04/02 07:25:17;;;;;;;2.15;0.70;;;4.80;99.90;;;;;;5025251;28;20041;-69
2023/04/02 07:27:43;;;;;;;1.15;0.70;;;4.90;99.90;;;;;;5020878;28;20369;-70
2023/04/02 07:30:08;;;;;;;3.53;0.93;;;5.00;99.90;;;;;;5017210;28;20493;-69
2023/04/02 07:32:35;;;;;;;2.75;0.75;;;5.00;99.90;;;;;;5000578;28;20041;-66
2023/04/02 07:35:01;;;;;;;3.55;1.02;;;5.30;99.90;;;;;;5014624;28;20049;-70
2023/04/02 07:37:27;;;;;;;4.40;0.70;;;5.60;99.90;;;;;;5018110;28;20046;-69
2023/04/02 07:39:52;;;;;;;2.85;0.80;;;5.90;99.90;;;;;;5017121;28;20152;-71
2023/04/02 07:42:18;;;;;;;0.93;0.50;;;5.60;99.90;;;;;;5000133;28;20124;-71
2023/04/02 07:44:43;;;;;;;0.93;0.68;;;5.80;99.90;;;;;;5015739;28;20041;-70
2023/04/02 07:47:09;;;;;;;1.75;0.80;;;5.50;99.90;;;;;;4999993;28;20038;-69
2023/04/02 07:49:35;;;;;;;2.85;1.25;;;5.40;99.90;;;;;;5013941;28;20041;-69
2023/04/02 07:52:00;;;;;;;1.63;0.63;;;5.40;99.90;;;;;;5015812;28;20117;-68
2023/04/02 07:54:26;;;;;;;0.77;0.47;;;5.30;99.90;;;;;;5004660;28;20064;-69
2023/04/02 07:56:51;;;;;;;2.97;0.70;;;4.90;99.90;;;;;;4998771;28;21548;-70
2023/04/02 07:59:17;;;;;;;1.35;0.80;;;5.00;99.90;;;;;;5016418;28;20037;-69
2023/04/02 08:01:43;;;;;;;2.35;0.70;;;4.90;99.90;;;;;;5014442;28;20056;-68
2023/04/02 08:04:20;;;;;;;1.15;0.75;;;5.10;99.90;;;;;;5002419;28;20409;-70
2023/04/02 08:06:46;;;;;;;2.90;0.77;;;5.00;99.90;;;;;;5019094;28;20084;-69
2023/04/02 08:09:13;;;;;;;2.63;0.60;;;4.80;99.90;;;;;;5000999;28;20045;-68
2023/04/02 08:11:40;;;;;;;1.13;0.60;;;4.70;99.90;;;;;;5016215;28;20056;-69
2023/04/02 08:14:07;;;;;;;5.40;0.93;;;5.00;99.90;;;;;;5018489;28;20083;-67
2023/04/02 08:16:51;;;;;;;2.10;0.82;;;4.80;99.90;;;;;;5003212;28;20411;-68
2023/04/02 08:19:16;;;;;;;1.75;0.60;;;4.80;99.90;;;;;;5002719;28;20696;-70
2023/04/02 08:21:43;;;;;;;2.25;0.75;;;4.80;99.90;;;;;;5002919;28;20042;-69
2023/04/02 08:24:09;;;;;;;3.30;0.93;;;4.80;99.90;;;;;;4996953;28;20090;-68
2023/04/02 08:26:36;;;;;;;3.17;1.10;;;4.90;99.90;;;;;;5026838;28;20033;-69
2023/04/02 08:29:02;;;;;;;1.25;0.70;;;5.10;99.90;;;;;;4999883;28;20076;-68
2023/04/02 08:31:27;;;;;;;1.50;0.70;;;4.80;99.90;;;;;;5011693;28;20123;-69
2023/04/02 08:33:55;;;;;;;1.88;0.82;;;4.70;99.90;;;;;;5018689;28;20128;-67
2023/04/02 08:36:28;;;;;;;2.72;0.50;;;4.60;99.90;;;;;;5004507;28;20041;-70
2023/04/02 08:38:53;;;;;;;1.83;0.80;;;4.80;99.90;;;;;;5019498;28;20034;-69
2023/04/02 08:41:26;;;;;;;2.25;0.77;;;5.00;99.90;;;;;;5031998;28;20067;-68
2023/04/02 08:43:54;;;;;;;1.73;0.65;;;5.30;99.90;;;;;;5022348;28;20532;-67
2023/04/02 08:46:36;;;;;;;0.63;0.50;;;5.30;99.90;;;;;;5023778;28;20076;-69
2023/04/02 08:49:12;;;;;;;4.95;1.10;;;5.50;99.90;;;;;;5016298;28;20050;-68
2023/04/02 08:51:38;;;;;;;1.42;0.60;;;5.20;99.90;;;;;;5022989;28;20038;-68
2023/04/02 08:54:25;;;;;;;2.50;0.77;;;5.40;99.90;;;;;;5023709;28;20053;-72
2023/04/02 08:56:57;;;;;;;1.10;0.68;;;5.60;99.90;;;;;;4976168;28;20059;-69
2023/04/02 08:59:35;;;;;;;3.78;0.70;;;5.70;99.90;;;;;;4994330;28;20046;-68
2023/04/02 09:02:22;;;;;;;3.15;0.73;;;6.20;99.90;;;;;;4998652;28;20046;-71
2023/04/02 09:04:49;;;;;;;1.02;0.57;;;6.50;99.90;;;;;;5015417;28;20080;-69
2023/04/02 09:07:16;;;;;;;1.45;0.80;;;6.70;99.90;;;;;;5022693;28;20123;-70
2023/04/02 09:09:42;;;;;;;1.98;0.57;;;6.70;99.90;;;;;;5023604;28;20057;-69
2023/04/02 09:12:22;;;;;;;1.48;0.75;;;6.20;99.90;;;;;;5018393;28;20128;-68
2023/04/02 09:15:09;;;;;;;1.05;0.52;;;6.30;99.90;;;;;;5000456;28;20042;-69
2023/04/02 09:17:37;;;;;;;1.30;0.68;;;6.30;98.70;;;;;;5002766;28;20073;-71
2023/04/02 09:20:20;;;;;;;3.45;0.90;;;6.50;99.90;;;;;;5016033;28;20041;-68
2023/04/02 09:22:49;;;;;;;3.08;0.70;;;6.80;99.90;;;;;;5021793;28;20026;-70
2023/04/02 09:25:26;;;;;;;1.93;1.10;;;6.80;99.90;;;;;;5020095;28;20049;-69
2023/04/02 09:27:55;;;;;;;3.15;0.80;;;6.70;95.60;;;;;;5000515;28;20069;-70
2023/04/02 09:30:46;;;;;;;1.77;0.63;;;6.70;99.50;;;;;;5004956;28;20152;-70
2023/04/02 09:33:11;;;;;;;2.78;0.65;;;6.60;99.90;;;;;;5022794;28;20508;-70
2023/04/02 09:35:54;;;;;;;2.17;0.70;;;6.70;99.90;;;;;;5000854;28;20029;-71
2023/04/02 09:38:31;;;;;;;3.22;0.63;;;6.90;99.90;;;;;;5001067;28;20100;-72
2023/04/02 09:40:58;;;;;;;2.80;0.70;;;7.00;99.90;;;;;;4994273;28;20030;-72
2023/04/02 09:43:30;;;;;;;3.22;0.70;;;7.20;99.90;;;;;;5000275;28;20053;-67
2023/04/02 09:46:00;;;;;;;3.83;0.65;;;7.40;99.90;;;;;;4996947;28;20041;-71
2023/04/02 09:48:34;;;;;;;1.00;0.50;;;7.20;99.90;;;;;;5005419;28;20088;-69
2023/04/02 09:51:15;;;;;;;2.70;0.73;;;7.40;99.90;;;;;;4988644;28;20026;-72
2023/04/02 09:53:48;;;;;;;2.25;0.80;;;7.30;99.90;;;;;;5007703;28;20180;-73
2023/04/02 09:56:21;;;;;;;2.25;0.75;;;7.70;99.90;;;;;;5015224;28;20123;-68
2023/04/02 09:59:01;;;;;;;1.50;0.65;;;8.00;99.90;;;;;;5010987;28;20044;-71
2023/04/02 10:01:33;;;;;;;1.60;0.70;;;8.00;99.90;;;;;;5003386;28;20041;-71
2023/04/02 10:03:58;;;;;;;1.02;0.68;;;8.10;99.90;;;;;;5006555;28;20049;-69
2023/04/02 10:06:26;;;;;;;2.22;0.88;;;8.10;99.90;;;;;;5005389;28;20050;-72
2023/04/02 10:08:52;;;;;;;1.67;0.80;;;8.30;99.90;;;;;;5021390;28;20049;-74
2023/04/02 10:11:33;;;;;;;3.83;0.82;;;8.00;99.90;;;;;;5007621;28;20041;-71
2023/04/02 10:14:27;;;;;;;1.60;0.50;;;8.00;99.90;;;;;;5000129;28;20084;-72
2023/04/02 10:17:20;;;;;;;1.27;0.50;;;7.90;99.90;;;;;;5026470;28;20045;-71
2023/04/02 10:19:51;;;;;;;1.10;0.43;;;8.10;99.90;;;;;;5026886;28;20476;-68
2023/04/02 10:22:21;;;;;;;0.70;0.50;;;7.90;99.90;;;;;;5004794;28;20104;-70
2023/04/02 10:24:48;;;;;;;1.88;0.52;;;7.60;98.20;;;;;;5009200;28;20460;-71
2023/04/02 10:27:30;;;;;;;2.15;0.65;;;7.70;99.90;;;;;;5023520;28;20037;-71
2023/04/02 10:30:08;;;;;;;1.45;0.50;;;7.50;99.90;;;;;;5028190;28;20469;-71
2023/04/02 10:32:42;;;;;;;2.67;0.85;;;7.70;93.90;;;;;;5026908;28;20095;-69
2023/04/02 10:35:20;;;;;;;1.00;0.68;;;7.70;91.20;;;;;;5012994;28;20048;-73
2023/04/02 10:37:45;;;;;;;2.65;1.00;;;7.70;95.50;;;;;;5007373;28;20048;-73
2023/04/02 10:40:36;;;;;;;1.38;0.47;;;7.80;98.00;;;;;;5010640;28;20041;-71
2023/04/02 10:43:24;;;;;;;1.88;0.70;;;7.90;95.40;;;;;;5007363;28;20087;-72
2023/04/02 10:45:55;;;;;;;3.05;0.80;;;8.00;98.50;;;;;;5028929;28;20076;-69
2023/04/02 10:48:38;;;;;;;1.45;0.55;;;8.20;99.90;;;;;;5026865;28;20647;-69
2023/04/02 10:51:27;;;;;;;1.42;0.85;;;8.00;86.60;;;;;;5022835;28;20045;-70
2023/04/02 10:54:30;;;;;;;1.23;0.50;;;7.90;91.10;;;;;;5007815;28;20478;-71
2023/04/02 10:57:11;;;;;;;2.42;0.63;;;8.20;98.30;;;;;;5022309;28;20038;-71
2023/04/02 10:59:42;;;;;;;1.98;0.90;;;8.50;99.90;;;;;;5015671;28;20056;-70
2023/04/02 11:02:33;;;;;;;4.70;0.90;;;8.50;99.90;;;;;;5007666;28;20041;-73
2023/04/02 11:05:09;;;;;;;5.30;1.13;;;8.80;99.90;;;;;;4997157;28;20042;-71
2023/04/02 11:07:46;;;;;;;2.70;0.68;;;8.90;99.90;;;;;;5020788;28;20057;-69
2023/04/02 11:10:18;;;;;;;2.17;0.88;;;8.90;99.90;;;;;;5025519;28;20053;-71
2023/04/02 11:13:19;;;;;;;1.55;0.80;;;8.80;99.90;;;;;;5029030;28;20059;-71
2023/04/02 11:15:45;;;;;;;2.03;0.73;;;9.20;98.20;;;;;;5023654;28;20452;-72
2023/04/02 11:18:32;;;;;;;2.30;0.75;;;9.20;99.90;;;;;;5028778;28;20038;-72
2023/04/02 11:21:04;;;;;;;1.48;0.65;;;9.60;97.70;;;;;;5009477;28;20045;-72
2023/04/02 11:23:57;;;;;;;2.78;1.02;;;9.90;99.90;;;;;;5030681;28;20362;-73
2023/04/02 11:26:41;;;;;;;0.70;0.60;;;10.10;97.30;;;;;;5028602;28;20501;-72
2023/04/02 11:29:23;;;;;;;3.17;0.80;;;10.40;98.20;;;;;;5032005;28;20029;-72
2023/04/02 11:32:09;;;;;;;6.03;0.90;;;10.70;99.90;;;;;;5030596;28;20477;-71
2023/04/02 11:34:57;;;;;;;1.40;0.50;;;10.80;99.90;;;;;;5005814;28;20119;-71
2023/04/02 11:37:32;;;;;;;1.65;0.70;;;11.00;98.80;;;;;;5008472;28;20481;-71
2023/04/02 11:39:59;;;;;;;4.35;1.17;;;11.10;99.90;;;;;;5008032;28;20049;-70
2023/04/02 11:42:31;;;;;;;0.85;0.50;;;10.70;96.90;;;;;;5012789;28;20037;-72
2023/04/02 11:45:19;;;;;;;3.17;0.80;;;10.80;99.90;;;;;;5022683;28;20095;-71
2023/04/02 11:48:00;;;;;;;1.45;0.70;;;10.30;95.70;;;;;;5012366;28;20041;-70
2023/04/02 11:50:30;;;;;;;1.42;1.00;;;10.60;93.50;;;;;;5031806;28;20151;-71
2023/04/02 11:53:03;;;;;;;1.50;0.73;;;10.60;97.80;;;;;;5015148;28;20041;-72
2023/04/02 11:55:33;;;;;;;2.78;0.70;;;10.40;96.00;;;;;;5015152;28;20045;-70
2023/04/02 11:58:31;;;;;;;3.47;1.00;;;9.90;94.00;;;;;;5028999;28;20049;-68
2023/04/02 12:01:10;;;;;;;2.15;0.65;;;9.80;79.50;;;;;;5015551;28;20516;-70
2023/04/02 12:03:44;;;;;;;0.98;0.52;;;9.40;84.60;;;;;;5029257;28;20037;-69
2023/04/02 12:06:28;;;;;;;1.95;0.65;;;9.30;95.40;;;;;;5010093;28;20045;-71
2023/04/02 12:09:15;;;;;;;1.65;0.63;;;9.40;87.00;;;;;;5015238;28;20065;-70
2023/04/02 12:11:42;;;;;;;4.28;0.90;;;9.40;84.20;;;;;;5016465;28;20124;-71
2023/04/02 12:14:29;;;;;;;0.93;0.50;;;9.50;93.20;;;;;;5026747;28;20053;-66
2023/04/02 12:16:55;;;;;;;3.33;0.70;;;9.80;84.50;;;;;;5021261;28;20478;-71
2023/04/02 12:19:22;;;;;;;2.28;0.50;;;10.30;96.70;;;;;;5024039;28;20561;-70
2023/04/02 12:21:50;;;;;;;2.40;0.80;;;10.60;94.70;;;;;;5012502;28;20060;-70
2023/04/02 12:24:23;;;;;;;3.28;0.77;;;10.80;97.70;;;;;;5028976;28;20044;-69
2023/04/02 12:27:07;;;;;;;3.08;0.55;;;11.20;91.30;;;;;;5012357;28;20048;-69
2023/04/02 12:29:33;;;;;;;2.03;0.88;;;10.90;81.80;;;;;;5010024;28;20071;-66
2023/04/02 12:31:59;;;;;;;1.85;0.57;;;10.80;79.80;;;;;;5030339;28;20465;-68
2023/04/02 12:34:27;;;;;;;0.80;0.40;;;10.30;91.90;;;;;;5008955;28;20037;-71
2023/04/02 12:36:54;;;;;;;2.20;0.90;;;10.40;91.70;;;;;;5008226;28;20034;-70
2023/04/02 12:39:20;;;;;;;1.08;0.70;;;10.40;85.60;;;;;;5013829;28;20076;-69
2023/04/02 12:41:46;;;;;;;1.35;0.50;;;10.20;90.00;;;;;;5013391;28;20119;-70
2023/04/02 12:44:18;;;;;;;1.50;0.50;;;10.20;92.10;;;;;;5013095;28;20045;-71
2023/04/02 12:46:46;;;;;;;0.90;0.50;;;10.30;87.50;;;;;;5029277;28;20049;-71
2023/04/02 12:49:37;;;;;;;3.83;0.95;;;10.60;93.40;;;;;;5011573;28;20800;-69
2023/04/02 12:52:15;;;;;;;1.65;0.68;;;11.10;83.30;;;;;;5011112;28;20495;-72
2023/04/02 12:54:49;;;;;;;1.88;0.65;;;13.00;72.70;;;;;;5008605;28;20100;-71
2023/04/02 12:57:29;;;;;;;2.80;0.80;;;13.50;82.00;;;;;;5013023;28;20056;-69
2023/04/02 13:00:21;;;;;;;1.00;0.70;;;14.40;77.70;;;;;;5012608;28;20124;-70
2023/04/02 13:02:59;;;;;;;6.72;1.00;;;16.10;58.40;;;;;;5014372;28;20037;-69
2023/04/02 13:05:48;;;;;;;1.67;0.50;;;17.50;57.10;;;;;;5006345;28;20401;-71
2023/04/02 13:08:39;;;;;;;0.95;0.52;;;15.80;53.10;;;;;;5004007;28;20048;-73
2023/04/02 13:11:05;;;;;;;0.82;0.50;;;17.20;53.00;;;;;;4992274;28;20426;-71
2023/04/02 13:13:36;;;;;;;1.58;0.70;;;17.00;56.50;;;;;;5010106;28;20106;-71
2023/04/02 13:16:08;;;;;;;1.75;0.60;;;16.60;61.00;;;;;;5011879;28;20443;-71
2023/04/02 13:18:36;;;;;;;0.90;0.50;;;18.50;53.00;;;;;;4997644;28;20049;-73
2023/04/02 13:21:25;;;;;;;2.47;0.77;;;17.10;58.80;;;;;;4995709;28;20447;-71
2023/04/02 13:23:50;;;;;;;0.65;0.43;;;18.80;45.90;;;;;;5012387;28;20049;-74
2023/04/02 13:26:25;;;;;;;0.70;0.30;;;19.20;54.90;;;;;;5001280;28;20045;-70
2023/04/02 13:29:08;;;;;;;0.93;0.43;;;18.70;47.80;;;;;;4999865;28;20073;-71
2023/04/02 13:31:33;;;;;;;3.72;0.73;;;17.90;50.90;;;;;;5006929;28;20049;-72
2023/04/02 13:34:00;;;;;;;1.40;0.40;;;17.20;60.40;;;;;;5027025;28;20041;-70
2023/04/02 13:36:28;;;;;;;1.90;0.50;;;16.60;53.10;;;;;;5010855;28;20460;-72
2023/04/02 13:38:54;;;;;;;1.45;0.40;;;16.60;58.30;;;;;;5001453;28;20582;-73